Time;durP1;ratioP1;P1;durP2;ratioP2;P2;SDS_P1;SDS_P2;PMS_P1;PMS_P2;Temp;Humidity;BMP_temperature;BMP_pressure;BME280_temperature;BME280_humidity;BME280_pressure;Samples;Min_cycle;Max_cycle;Signal;HPM_P1;HPM_P2
2022/11/20 00:02:02;;;;;;;18.27;12.77;;;2.70;99.90;;;;;;5051535;28;20037;-63
2022/11/20 00:04:28;;;;;;;16.35;11.63;;;2.80;99.90;;;;;;5051617;28;20082;-63
2022/11/20 00:06:54;;;;;;;13.90;10.80;;;3.00;99.90;;;;;;5051442;28;20025;-63
2022/11/20 00:09:20;;;;;;;14.68;9.32;;;3.00;99.90;;;;;;5051388;28;20048;-63
2022/11/20 00:11:46;;;;;;;18.88;12.15;;;3.00;99.90;;;;;;5051734;28;20370;-63
2022/11/20 00:14:11;;;;;;;19.77;13.75;;;3.10;99.90;;;;;;5053713;28;20029;-63
2022/11/20 00:16:37;;;;;;;18.58;11.65;;;3.10;99.90;;;;;;5055477;28;20082;-63
2022/11/20 00:19:03;;;;;;;16.70;12.00;;;3.00;99.90;;;;;;5055815;28;20033;-63
2022/11/20 00:21:29;;;;;;;15.73;10.60;;;3.10;99.90;;;;;;5055248;28;20033;-63
2022/11/20 00:23:56;;;;;;;11.23;8.32;;;3.40;99.90;;;;;;5055145;28;20067;-64
2022/11/20 00:26:24;;;;;;;14.75;9.48;;;3.20;99.90;;;;;;5054172;28;20021;-63
2022/11/20 00:28:55;;;;;;;17.30;10.98;;;3.30;99.90;;;;;;5054804;28;20032;-63
2022/11/20 00:31:21;;;;;;;13.75;10.35;;;3.20;99.90;;;;;;5055287;28;20112;-63
2022/11/20 00:33:47;;;;;;;15.13;10.20;;;3.20;99.90;;;;;;5055155;28;20062;-63
2022/11/20 00:36:15;;;;;;;14.82;8.43;;;3.20;99.90;;;;;;5055377;28;20538;-63
2022/11/20 00:38:42;;;;;;;9.68;7.68;;;3.20;99.90;;;;;;5055095;28;20021;-63
2022/11/20 00:41:09;;;;;;;13.13;8.77;;;3.00;99.90;;;;;;5054790;28;20041;-63
2022/11/20 00:43:36;;;;;;;11.57;7.28;;;3.20;99.90;;;;;;5054555;28;20055;-63
2022/11/20 00:46:09;;;;;;;11.70;8.45;;;3.10;99.90;;;;;;5054846;28;20397;-63
2022/11/20 00:48:35;;;;;;;13.70;10.13;;;3.00;99.90;;;;;;5054949;28;20043;-63
2022/11/20 00:51:01;;;;;;;13.43;10.43;;;2.90;99.90;;;;;;5054869;28;20040;-63
2022/11/20 00:53:27;;;;;;;12.98;9.55;;;3.00;99.90;;;;;;5055116;28;20424;-63
2022/11/20 00:55:58;;;;;;;14.35;8.45;;;3.10;99.90;;;;;;5053325;28;20148;-63
2022/11/20 00:58:25;;;;;;;11.32;7.68;;;3.20;99.90;;;;;;5036496;28;20021;-63
2022/11/20 01:00:51;;;;;;;14.73;8.80;;;3.20;99.90;;;;;;5054434;28;20082;-63
2022/11/20 01:03:17;;;;;;;13.02;7.38;;;3.30;99.90;;;;;;5054933;28;20104;-63
2022/11/20 01:05:43;;;;;;;12.57;8.90;;;3.40;99.90;;;;;;5054573;28;20028;-63
2022/11/20 01:08:09;;;;;;;11.52;7.68;;;3.10;99.90;;;;;;5054637;28;20025;-63
2022/11/20 01:10:34;;;;;;;14.23;7.15;;;3.10;99.90;;;;;;5054411;28;20056;-63
2022/11/20 01:15:44;;;;;;;13.82;7.90;;;3.30;99.90;;;;;;5054435;28;20105;-63
2022/11/20 01:18:10;;;;;;;11.48;7.07;;;3.40;99.90;;;;;;5054288;28;20071;-63
2022/11/20 01:20:36;;;;;;;11.48;6.28;;;3.60;99.90;;;;;;5054347;28;20021;-63
2022/11/20 01:23:03;;;;;;;11.35;6.40;;;3.40;99.90;;;;;;5054621;28;20029;-63
2022/11/20 01:25:29;;;;;;;10.45;6.35;;;3.50;99.90;;;;;;5053343;28;20032;-63
2022/11/20 01:27:55;;;;;;;12.85;6.47;;;3.50;99.90;;;;;;5053754;28;20044;-63
2022/11/20 01:30:21;;;;;;;10.77;6.60;;;3.50;99.90;;;;;;5054075;28;20064;-63
2022/11/20 01:32:47;;;;;;;12.05;7.15;;;3.40;99.90;;;;;;5054341;28;20060;-63
2022/11/20 01:35:12;;;;;;;12.13;7.72;;;3.60;99.90;;;;;;5053772;28;20075;-63
2022/11/20 01:37:38;;;;;;;12.77;8.13;;;3.60;99.90;;;;;;5054038;28;20099;-63
2022/11/20 01:40:04;;;;;;;15.80;9.13;;;3.70;99.90;;;;;;5053995;28;20079;-63
2022/11/20 01:45:52;;;;;;;11.05;6.13;;;3.90;99.90;;;;;;5053756;28;20075;-63
2022/11/20 01:48:20;;;;;;;11.25;5.35;;;4.10;99.90;;;;;;5053925;28;20027;-63
2022/11/20 01:50:46;;;;;;;11.35;6.53;;;4.20;99.90;;;;;;5053603;28;20033;-63
2022/11/20 01:53:18;;;;;;;11.15;6.72;;;4.30;99.90;;;;;;5053688;28;20036;-63
2022/11/20 01:55:52;;;;;;;9.23;6.57;;;4.30;99.90;;;;;;5053379;28;20028;-63
2022/11/20 01:58:22;;;;;;;9.35;5.28;;;4.40;99.90;;;;;;5053790;28;20033;-64
2022/11/20 02:00:48;;;;;;;9.02;4.93;;;4.50;99.90;;;;;;5053585;28;20033;-63
2022/11/20 02:03:18;;;;;;;8.27;4.57;;;4.40;99.90;;;;;;5053775;28;20025;-63
2022/11/20 02:05:52;;;;;;;9.52;5.00;;;4.50;99.90;;;;;;5053522;28;20017;-63
2022/11/20 02:08:19;;;;;;;10.60;5.72;;;4.40;99.90;;;;;;5053282;28;20033;-63
2022/11/20 02:10:44;;;;;;;10.00;5.00;;;4.50;99.90;;;;;;5052860;28;20033;-64
2022/11/20 02:15:55;;;;;;;10.23;6.13;;;4.50;99.90;;;;;;5053698;28;20052;-63
2022/11/20 02:18:22;;;;;;;7.75;4.50;;;4.60;99.90;;;;;;5053161;28;20021;-63
2022/11/20 02:21:00;;;;;;;8.93;5.00;;;4.70;99.90;;;;;;5053370;28;20472;-63
2022/11/20 02:23:59;;;;;;;9.93;5.47;;;4.70;99.90;;;;;;5052537;28;20037;-63
2022/11/20 02:26:27;;;;;;;12.30;5.90;;;4.80;99.90;;;;;;5053075;28;20469;-63
2022/11/20 02:28:53;;;;;;;10.77;5.25;;;4.70;99.90;;;;;;5053346;28;20028;-63
2022/11/20 02:31:19;;;;;;;9.50;4.85;;;4.80;99.90;;;;;;5052874;28;20382;-63
2022/11/20 02:33:44;;;;;;;11.80;5.57;;;4.90;99.90;;;;;;5052951;28;20024;-63
2022/11/20 02:36:14;;;;;;;10.95;4.90;;;4.90;99.90;;;;;;5052636;28;20065;-63
2022/11/20 02:38:39;;;;;;;8.07;4.05;;;5.00;99.90;;;;;;5052317;28;20508;-63
2022/11/20 02:41:05;;;;;;;9.20;4.55;;;5.00;99.90;;;;;;5052928;28;20049;-63
2022/11/20 02:43:31;;;;;;;9.30;4.05;;;5.20;99.90;;;;;;5052789;28;20470;-63
2022/11/20 02:45:56;;;;;;;6.32;3.58;;;5.10;99.90;;;;;;5052583;28;20065;-63
2022/11/20 02:48:22;;;;;;;14.07;4.57;;;5.10;99.90;;;;;;5053092;28;20025;-63
2022/11/20 02:50:48;;;;;;;7.30;3.95;;;5.10;99.90;;;;;;5052483;28;20021;-63
2022/11/20 02:53:13;;;;;;;7.78;5.25;;;5.10;99.90;;;;;;5052197;28;20079;-63
2022/11/20 02:55:39;;;;;;;6.65;4.63;;;5.10;99.90;;;;;;5052925;28;20025;-63
2022/11/20 02:58:05;;;;;;;11.63;5.75;;;5.10;99.90;;;;;;5052235;28;20064;-63
2022/11/20 03:00:31;;;;;;;8.50;4.65;;;5.10;99.90;;;;;;5052495;28;20496;-63
2022/11/20 03:02:57;;;;;;;11.32;5.43;;;5.20;99.90;;;;;;5052332;28;20064;-63
2022/11/20 03:05:23;;;;;;;7.75;4.07;;;5.20;99.90;;;;;;5052206;28;20053;-63
2022/11/20 03:07:48;;;;;;;8.95;4.35;;;5.20;99.90;;;;;;5050936;28;20131;-63
2022/11/20 03:10:14;;;;;;;7.30;3.80;;;5.20;99.90;;;;;;5052001;28;20029;-63
2022/11/20 03:12:40;;;;;;;10.05;8.55;;;5.20;99.90;;;;;;5052064;28;20024;-63
2022/11/20 03:15:06;;;;;;;9.70;4.63;;;5.20;99.90;;;;;;5051854;28;20031;-63
2022/11/20 03:17:32;;;;;;;7.00;3.92;;;5.20;99.90;;;;;;5052524;28;20021;-63
2022/11/20 03:19:57;;;;;;;8.80;4.60;;;5.30;99.90;;;;;;5050848;28;20028;-63
2022/11/20 03:22:23;;;;;;;8.07;3.83;;;5.20;99.90;;;;;;5051571;28;20094;-63
2022/11/20 03:24:48;;;;;;;6.82;3.88;;;5.20;99.90;;;;;;5052106;28;20501;-63
2022/11/20 03:27:14;;;;;;;9.30;3.80;;;5.20;99.90;;;;;;5051978;28;20033;-63
2022/11/20 03:29:40;;;;;;;8.38;4.35;;;5.10;99.90;;;;;;5051969;28;20025;-63
2022/11/20 03:32:07;;;;;;;6.68;3.50;;;5.10;99.90;;;;;;5051979;28;20025;-63
2022/11/20 03:34:33;;;;;;;6.18;3.80;;;5.10;99.90;;;;;;5051913;28;20021;-63
2022/11/20 03:36:58;;;;;;;5.53;3.70;;;5.00;99.90;;;;;;5051296;28;20029;-63
2022/11/20 03:39:24;;;;;;;6.43;3.60;;;5.00;99.90;;;;;;5052031;28;20041;-63
2022/11/20 03:41:49;;;;;;;5.15;3.50;;;5.10;99.90;;;;;;5051648;28;20056;-63
2022/11/20 03:44:15;;;;;;;6.70;3.78;;;5.10;99.90;;;;;;5051719;28;20043;-63
2022/11/20 03:46:41;;;;;;;9.43;4.32;;;5.10;99.90;;;;;;5051970;28;20111;-63
2022/11/20 03:49:06;;;;;;;6.93;4.30;;;5.20;99.90;;;;;;5051088;28;20458;-63
2022/11/20 03:51:35;;;;;;;11.05;4.45;;;5.20;99.90;;;;;;5051401;28;20108;-63
2022/11/20 03:54:04;;;;;;;6.78;3.65;;;5.30;99.90;;;;;;5051655;28;20389;-63
2022/11/20 03:56:32;;;;;;;6.75;3.90;;;5.30;99.90;;;;;;5051685;28;20393;-63
2022/11/20 03:58:58;;;;;;;4.93;3.45;;;5.30;99.90;;;;;;5051442;28;20406;-63
2022/11/20 04:01:31;;;;;;;7.53;3.58;;;5.30;99.90;;;;;;5051889;28;20045;-63
2022/11/20 04:03:57;;;;;;;6.07;3.60;;;5.30;99.90;;;;;;5051399;28;20397;-63
2022/11/20 04:06:43;;;;;;;8.77;4.38;;;5.30;99.90;;;;;;5051228;28;20033;-63
2022/11/20 04:09:08;;;;;;;7.05;4.78;;;5.40;99.90;;;;;;5051339;28;20410;-63
2022/11/20 04:11:37;;;;;;;7.03;4.85;;;5.40;99.90;;;;;;5051254;28;20029;-63
2022/11/20 04:14:05;;;;;;;7.07;4.25;;;5.40;99.90;;;;;;5051811;28;20100;-63
2022/11/20 04:16:33;;;;;;;9.30;4.85;;;5.40;99.90;;;;;;5051413;28;20052;-63
2022/11/20 04:19:01;;;;;;;6.35;4.03;;;5.40;99.90;;;;;;5051261;28;20025;-63
2022/11/20 04:21:27;;;;;;;6.38;5.10;;;5.40;99.90;;;;;;5050940;28;20078;-63
2022/11/20 04:23:54;;;;;;;13.20;4.85;;;5.40;99.90;;;;;;5051546;28;20026;-63
2022/11/20 04:26:21;;;;;;;7.45;4.28;;;5.30;99.90;;;;;;5050059;28;20888;-63
2022/11/20 04:28:47;;;;;;;5.63;3.38;;;5.20;99.90;;;;;;5051221;28;20021;-63
2022/11/20 04:31:27;;;;;;;7.43;4.00;;;5.20;99.90;;;;;;5051381;28;20100;-64
2022/11/20 04:33:53;;;;;;;9.52;4.30;;;5.30;99.90;;;;;;5051137;28;20032;-64
2022/11/20 04:36:21;;;;;;;6.38;3.47;;;5.20;99.90;;;;;;5050796;28;20021;-63
2022/11/20 04:38:51;;;;;;;5.35;3.90;;;5.20;99.90;;;;;;5051126;28;20136;-63
2022/11/20 04:41:19;;;;;;;7.57;4.47;;;5.10;99.90;;;;;;5051326;28;20037;-64
2022/11/20 04:43:58;;;;;;;8.55;4.20;;;5.10;99.90;;;;;;5051219;28;20537;-64
2022/11/20 04:46:25;;;;;;;7.85;3.80;;;5.00;99.90;;;;;;5051134;28;20056;-63
2022/11/20 04:48:51;;;;;;;7.38;3.70;;;5.10;99.90;;;;;;5050845;28;20013;-63
2022/11/20 04:51:17;;;;;;;6.40;3.70;;;5.10;99.90;;;;;;5051317;28;20505;-63
2022/11/20 04:53:43;;;;;;;7.85;4.25;;;5.10;99.90;;;;;;5051236;28;20025;-63
2022/11/20 04:56:11;;;;;;;6.55;4.22;;;5.10;99.90;;;;;;5051040;28;20033;-64
2022/11/20 04:58:37;;;;;;;7.80;4.55;;;5.20;99.90;;;;;;5050907;28;20021;-64
2022/11/20 05:01:11;;;;;;;6.20;4.15;;;5.20;99.90;;;;;;5052996;28;20467;-64
2022/11/20 05:03:38;;;;;;;5.85;4.18;;;5.30;99.90;;;;;;5054441;28;20120;-64
2022/11/20 05:06:06;;;;;;;6.68;3.08;;;5.40;99.90;;;;;;5054617;28;20027;-64
2022/11/20 05:08:32;;;;;;;7.80;4.10;;;5.50;99.90;;;;;;5054538;28;20021;-64
2022/11/20 05:11:09;;;;;;;6.97;4.00;;;5.50;99.90;;;;;;5054860;28;20056;-63
2022/11/20 05:13:35;;;;;;;6.72;3.40;;;5.50;99.90;;;;;;5054471;28;20386;-63
2022/11/20 05:16:06;;;;;;;10.57;5.10;;;5.60;99.90;;;;;;5053187;28;20033;-63
2022/11/20 05:18:32;;;;;;;9.05;6.10;;;5.60;99.90;;;;;;5053875;28;20107;-64
2022/11/20 05:20:59;;;;;;;8.65;3.50;;;5.60;99.90;;;;;;5054066;28;20075;-63
2022/11/20 05:23:25;;;;;;;8.70;4.53;;;5.70;99.90;;;;;;5054321;28;20037;-64
2022/11/20 05:25:55;;;;;;;8.95;4.13;;;5.60;99.90;;;;;;5054099;28;20037;-63
2022/11/20 05:28:21;;;;;;;6.63;3.67;;;5.70;99.90;;;;;;5054532;28;20054;-64
2022/11/20 05:30:47;;;;;;;10.00;5.95;;;5.70;99.90;;;;;;5054051;28;20033;-63
2022/11/20 05:33:12;;;;;;;11.88;5.35;;;5.70;99.90;;;;;;5053804;28;20078;-63
2022/11/20 05:35:38;;;;;;;9.32;4.90;;;5.70;99.90;;;;;;5053855;28;20379;-63
2022/11/20 05:38:04;;;;;;;10.65;5.25;;;5.70;99.90;;;;;;5053994;28;20074;-63
2022/11/20 05:40:29;;;;;;;7.03;4.45;;;5.80;99.90;;;;;;5053835;28;20558;-64
2022/11/20 05:42:55;;;;;;;8.00;4.30;;;5.80;99.90;;;;;;5052961;28;20037;-63
2022/11/20 05:45:21;;;;;;;6.95;3.95;;;5.80;99.90;;;;;;5053884;28;20048;-63
2022/11/20 05:47:46;;;;;;;7.47;4.03;;;5.90;99.90;;;;;;5053534;28;20083;-63
2022/11/20 05:50:13;;;;;;;5.78;3.75;;;5.90;99.90;;;;;;5053849;28;20029;-63
2022/11/20 05:52:38;;;;;;;6.28;3.60;;;5.80;99.90;;;;;;5052566;28;20469;-63
2022/11/20 05:55:05;;;;;;;5.60;3.70;;;5.90;99.90;;;;;;5054214;28;20038;-63
2022/11/20 05:57:31;;;;;;;5.63;3.53;;;5.80;99.90;;;;;;5053742;28;20159;-63
2022/11/20 05:59:57;;;;;;;5.40;2.75;;;5.70;99.90;;;;;;5053565;28;20021;-63
2022/11/20 06:02:23;;;;;;;8.63;4.47;;;5.70;99.90;;;;;;5053106;28;20041;-64
2022/11/20 06:04:49;;;;;;;7.18;5.05;;;5.70;99.90;;;;;;5053489;28;20032;-63
2022/11/20 06:07:15;;;;;;;7.05;4.32;;;5.80;99.90;;;;;;5053604;28;20094;-63
2022/11/20 06:09:41;;;;;;;10.98;4.70;;;5.80;99.90;;;;;;5053873;28;20053;-63
2022/11/20 06:12:06;;;;;;;10.50;4.25;;;5.90;99.90;;;;;;5051600;28;20502;-63
2022/11/20 06:14:33;;;;;;;6.95;4.03;;;5.90;99.90;;;;;;5053151;28;20036;-64
2022/11/20 06:16:59;;;;;;;8.13;3.80;;;5.90;99.90;;;;;;5052964;28;20060;-63
2022/11/20 06:19:24;;;;;;;5.82;3.58;;;6.00;99.90;;;;;;5053206;28;20112;-63
2022/11/20 06:21:50;;;;;;;6.95;3.97;;;6.10;99.90;;;;;;5053577;28;20033;-64
2022/11/20 06:24:16;;;;;;;6.50;3.65;;;6.00;99.90;;;;;;5053026;28;20104;-64
2022/11/20 06:26:42;;;;;;;6.45;3.10;;;6.10;99.90;;;;;;5053172;28;20563;-63
2022/11/20 06:29:08;;;;;;;7.13;4.78;;;6.20;99.90;;;;;;5052975;28;20017;-64
2022/11/20 06:31:37;;;;;;;8.35;4.93;;;6.20;99.90;;;;;;5052649;28;20039;-63
2022/11/20 06:34:06;;;;;;;7.10;5.00;;;6.30;99.90;;;;;;5053294;28;20033;-63
2022/11/20 06:36:33;;;;;;;6.60;3.85;;;6.30;99.90;;;;;;5052927;28;20028;-63
2022/11/20 06:38:59;;;;;;;8.40;4.10;;;6.30;99.90;;;;;;5052375;28;20036;-64
2022/11/20 06:41:25;;;;;;;7.95;4.07;;;6.40;99.90;;;;;;5052734;28;20032;-63
2022/11/20 06:43:51;;;;;;;7.45;3.75;;;6.50;99.90;;;;;;5052568;28;20028;-64
2022/11/20 06:46:18;;;;;;;7.38;3.75;;;6.50;99.90;;;;;;5052753;28;20096;-63
2022/11/20 06:48:45;;;;;;;5.75;3.28;;;6.60;99.90;;;;;;5052528;28;20135;-63
2022/11/20 06:51:11;;;;;;;5.65;3.25;;;6.60;99.90;;;;;;5052769;28;20374;-63
2022/11/20 06:53:37;;;;;;;7.50;3.45;;;6.70;99.90;;;;;;5052566;28;20383;-63
2022/11/20 06:56:03;;;;;;;5.60;2.60;;;6.80;99.90;;;;;;5052930;28;20108;-63
2022/11/20 06:58:31;;;;;;;7.93;3.10;;;6.80;99.90;;;;;;5051966;28;20118;-63
2022/11/20 07:01:02;;;;;;;7.55;2.83;;;6.80;99.90;;;;;;5052315;28;20024;-63
2022/11/20 07:03:27;;;;;;;7.13;3.20;;;6.90;99.90;;;;;;5052427;28;20060;-63
2022/11/20 07:05:58;;;;;;;7.15;3.03;;;7.00;99.90;;;;;;5052329;28;20122;-63
2022/11/20 07:08:24;;;;;;;6.13;3.17;;;7.00;99.90;;;;;;5052271;28;20052;-63
2022/11/20 07:10:50;;;;;;;5.35;4.00;;;7.10;99.90;;;;;;5052573;28;20402;-63
2022/11/20 07:13:16;;;;;;;7.85;3.90;;;7.10;99.90;;;;;;5052225;28;20024;-63
2022/11/20 07:15:41;;;;;;;9.45;6.82;;;7.10;99.90;;;;;;5052079;28;20025;-63
2022/11/20 07:18:07;;;;;;;8.27;4.68;;;7.20;99.90;;;;;;5052140;28;20482;-63
2022/11/20 07:20:33;;;;;;;9.85;4.10;;;7.20;99.90;;;;;;5052264;28;20028;-63
2022/11/20 07:22:59;;;;;;;7.53;3.72;;;7.30;99.90;;;;;;5051005;28;20059;-63
2022/11/20 07:25:28;;;;;;;8.88;3.40;;;7.40;99.90;;;;;;5051783;28;20082;-64
2022/11/20 07:28:00;;;;;;;5.47;3.00;;;7.40;99.90;;;;;;5051973;28;20021;-63
2022/11/20 07:30:29;;;;;;;7.50;2.70;;;7.40;99.90;;;;;;5052022;28;20504;-64
2022/11/20 07:32:56;;;;;;;5.57;2.70;;;7.50;99.90;;;;;;5050523;28;20449;-63
2022/11/20 07:35:24;;;;;;;5.97;3.15;;;7.50;99.90;;;;;;5051695;28;20049;-63
2022/11/20 07:37:49;;;;;;;5.80;3.08;;;7.60;99.90;;;;;;5050650;28;20495;-63
2022/11/20 07:40:18;;;;;;;9.48;3.38;;;7.60;99.90;;;;;;5051879;28;20127;-63
2022/11/20 07:42:55;;;;;;;5.78;2.50;;;7.70;99.90;;;;;;5051246;28;20057;-63
2022/11/20 07:45:23;;;;;;;6.40;3.00;;;7.70;99.90;;;;;;5051735;28;20500;-64
2022/11/20 07:47:49;;;;;;;4.75;2.75;;;7.80;99.90;;;;;;5052116;28;20025;-64
2022/11/20 07:50:16;;;;;;;7.53;2.60;;;7.90;99.90;;;;;;5051720;28;20025;-63
2022/11/20 07:52:41;;;;;;;6.50;3.05;;;8.00;99.90;;;;;;5051682;28;20033;-63
2022/11/20 07:55:08;;;;;;;5.57;2.42;;;8.00;99.90;;;;;;5052085;28;20033;-63
2022/11/20 07:57:34;;;;;;;7.43;2.75;;;8.10;99.90;;;;;;5051284;28;20104;-64
2022/11/20 08:00:00;;;;;;;5.28;2.35;;;8.10;99.90;;;;;;5051534;28;20060;-63
2022/11/20 08:02:25;;;;;;;7.47;3.13;;;8.20;99.90;;;;;;5051600;28;20037;-63
2022/11/20 08:04:51;;;;;;;10.45;3.53;;;8.20;99.90;;;;;;5051587;28;20074;-64
2022/11/20 08:07:17;;;;;;;5.93;2.58;;;8.30;99.90;;;;;;5051536;28;20485;-64
2022/11/20 08:09:42;;;;;;;5.72;2.72;;;8.30;99.90;;;;;;5051971;28;20239;-63
2022/11/20 08:15:00;;;;;;;7.13;2.70;;;8.60;99.90;;;;;;5051808;28;20424;-63
2022/11/20 08:17:26;;;;;;;6.32;2.70;;;8.70;99.90;;;;;;5051403;28;20021;-63
2022/11/20 08:19:51;;;;;;;6.00;2.30;;;8.90;99.90;;;;;;5051408;28;20497;-64
2022/11/20 08:22:17;;;;;;;7.05;2.22;;;8.90;99.90;;;;;;5051376;28;20118;-64
2022/11/20 08:24:43;;;;;;;5.82;2.05;;;8.90;99.90;;;;;;5051325;28;20025;-63
2022/11/20 08:27:08;;;;;;;7.78;2.35;;;9.10;99.90;;;;;;5051190;28;20047;-63
2022/11/20 08:29:34;;;;;;;8.05;2.00;;;9.30;99.90;;;;;;5051455;28;20347;-64
2022/11/20 08:32:00;;;;;;;4.18;1.63;;;9.30;99.90;;;;;;5051698;28;20104;-64
2022/11/20 08:34:25;;;;;;;4.82;1.63;;;9.30;99.90;;;;;;5052697;28;20068;-64
2022/11/20 08:36:51;;;;;;;8.32;2.13;;;9.30;99.90;;;;;;5054951;28;20486;-63
2022/11/20 08:39:17;;;;;;;3.75;1.73;;;9.30;99.90;;;;;;5054831;28;20053;-63
2022/11/20 08:41:42;;;;;;;7.20;1.75;;;9.40;99.90;;;;;;5055288;28;20051;-63
2022/11/20 08:44:08;;;;;;;7.93;2.00;;;9.50;99.90;;;;;;5055016;28;20025;-64
2022/11/20 08:46:40;;;;;;;8.23;2.00;;;9.60;99.90;;;;;;5054949;28;20029;-64
2022/11/20 08:49:08;;;;;;;6.88;1.60;;;9.70;99.90;;;;;;5054780;28;20036;-64
2022/11/20 08:51:35;;;;;;;5.25;2.00;;;9.70;99.90;;;;;;5055257;28;20039;-64
2022/11/20 08:54:01;;;;;;;5.88;2.30;;;9.80;99.90;;;;;;5054762;28;20029;-64
2022/11/20 08:56:27;;;;;;;16.58;12.68;;;9.90;99.90;;;;;;5054581;28;20071;-63
2022/11/20 08:58:53;;;;;;;4.85;1.67;;;9.90;99.90;;;;;;5054745;28;20021;-63
2022/11/20 09:01:20;;;;;;;6.40;2.40;;;9.90;99.90;;;;;;5054649;28;20478;-64
2022/11/20 09:03:46;;;;;;;12.93;7.30;;;10.00;99.90;;;;;;5055042;28;20415;-64
2022/11/20 09:06:12;;;;;;;6.78;2.92;;;10.00;99.90;;;;;;5054669;28;20058;-63
2022/11/20 09:08:38;;;;;;;6.75;2.10;;;10.00;99.90;;;;;;5054458;28;20116;-63
2022/11/20 09:11:04;;;;;;;6.90;3.05;;;10.00;99.90;;;;;;5054601;28;20052;-63
2022/11/20 09:13:31;;;;;;;7.38;4.28;;;10.10;99.90;;;;;;5054377;28;20033;-64
2022/11/20 09:16:05;;;;;;;11.70;3.00;;;10.10;99.90;;;;;;5054819;28;20060;-64
2022/11/20 09:18:32;;;;;;;7.22;4.18;;;10.20;99.90;;;;;;5054586;28;20036;-63
2022/11/20 09:21:03;;;;;;;4.85;1.73;;;10.10;99.90;;;;;;5054243;28;20029;-64
2022/11/20 09:23:33;;;;;;;5.90;2.30;;;10.20;99.90;;;;;;5054628;28;20040;-64
2022/11/20 09:26:05;;;;;;;7.38;2.00;;;10.20;99.90;;;;;;5054331;28;20017;-64
2022/11/20 09:28:31;;;;;;;8.18;2.20;;;10.20;99.90;;;;;;5054546;28;20041;-64
2022/11/20 09:30:57;;;;;;;7.80;2.25;;;10.20;99.90;;;;;;5054167;28;20025;-64
2022/11/20 09:33:23;;;;;;;8.48;2.30;;;10.30;99.90;;;;;;5054444;28;20025;-64
2022/11/20 09:35:48;;;;;;;8.93;3.28;;;10.30;99.90;;;;;;5054158;28;20017;-63
2022/11/20 09:38:14;;;;;;;8.55;2.47;;;10.40;99.90;;;;;;5053890;28;20114;-63
2022/11/20 09:40:55;;;;;;;13.52;11.35;;;10.60;99.90;;;;;;5053508;28;20099;-63
2022/11/20 09:43:21;;;;;;;9.25;3.42;;;10.70;99.90;;;;;;5054021;28;20051;-63
2022/11/20 09:46:05;;;;;;;9.07;3.30;;;10.70;99.90;;;;;;5053334;28;20022;-64
2022/11/20 09:48:36;;;;;;;8.00;3.08;;;10.70;99.90;;;;;;5054276;28;20563;-64
2022/11/20 09:51:21;;;;;;;10.45;2.70;;;10.70;99.90;;;;;;5053862;28;20363;-64
2022/11/20 09:54:05;;;;;;;9.93;3.47;;;10.70;99.90;;;;;;5053622;28;20048;-64
2022/11/20 09:56:37;;;;;;;6.68;2.60;;;10.80;99.90;;;;;;5053892;28;20017;-63
2022/11/20 09:59:06;;;;;;;6.22;3.60;;;10.90;99.90;;;;;;5053847;28;20039;-64
2022/11/20 10:01:38;;;;;;;8.88;3.03;;;11.00;99.90;;;;;;5052167;28;20692;-64
2022/11/20 10:04:05;;;;;;;15.95;9.38;;;11.20;99.90;;;;;;5053491;28;20532;-64
2022/11/20 10:06:41;;;;;;;7.43;4.43;;;11.30;99.90;;;;;;5053461;28;20394;-64
2022/11/20 10:09:13;;;;;;;9.55;7.43;;;11.30;99.90;;;;;;5053189;28;20123;-64
2022/11/20 10:11:45;;;;;;;16.23;10.90;;;11.30;99.90;;;;;;5053577;28;20401;-64
2022/11/20 10:14:34;;;;;;;34.35;27.75;;;11.30;99.90;;;;;;5053423;28;20445;-64
2022/11/20 10:17:30;;;;;;;43.63;32.67;;;11.30;99.90;;;;;;5053286;28;20447;-64
2022/11/20 10:20:22;;;;;;;34.20;27.83;;;11.40;99.90;;;;;;5051363;28;20025;-64
2022/11/20 10:23:26;;;;;;;5.45;2.10;;;11.50;99.90;;;;;;5030504;28;20053;-64
2022/11/20 10:26:01;;;;;;;8.68;7.22;;;11.50;99.90;;;;;;5030977;28;20514;-64
2022/11/20 10:28:59;;;;;;;14.75;13.18;;;11.80;99.90;;;;;;5031161;28;20048;-64
2022/11/20 10:31:39;;;;;;;43.58;39.83;;;12.10;99.90;;;;;;5030578;28;20037;-64
2022/11/20 10:34:26;;;;;;;24.70;22.58;;;12.20;99.90;;;;;;5030813;28;20116;-64
2022/11/20 10:36:59;;;;;;;14.25;11.48;;;12.30;99.90;;;;;;5030193;28;20037;-64
2022/11/20 10:39:55;;;;;;;11.48;7.88;;;12.30;99.90;;;;;;5030989;28;20029;-64
2022/11/20 10:42:42;;;;;;;9.77;5.50;;;12.50;99.90;;;;;;5031156;28;20037;-64
2022/11/20 10:45:26;;;;;;;13.20;5.15;;;12.60;99.90;;;;;;5030971;28;20549;-64
2022/11/20 10:48:07;;;;;;;19.38;5.05;;;12.80;99.90;;;;;;5030454;28;20112;-64
2022/11/20 10:50:40;;;;;;;28.63;14.45;;;12.80;99.90;;;;;;5030428;28;20026;-64
2022/11/20 10:53:32;;;;;;;21.50;8.75;;;12.90;99.90;;;;;;5030272;28;20465;-64
2022/11/20 10:56:05;;;;;;;18.02;4.85;;;13.00;99.90;;;;;;5030554;28;20053;-64
2022/11/20 10:59:00;;;;;;;25.70;8.67;;;12.90;99.90;;;;;;5028665;28;20387;-64
2022/11/20 11:01:26;;;;;;;22.73;5.72;;;12.90;99.90;;;;;;5012936;28;20296;-64
2022/11/20 11:03:54;;;;;;;24.85;6.95;;;12.90;99.90;;;;;;5013134;28;20399;-64
2022/11/20 11:06:34;;;;;;;27.08;6.32;;;13.00;99.90;;;;;;5012374;28;20038;-64
2022/11/20 11:09:08;;;;;;;28.25;5.63;;;13.10;99.90;;;;;;5012717;28;20113;-64
2022/11/20 11:11:34;;;;;;;28.70;9.85;;;13.10;99.90;;;;;;5013076;28;20542;-64
2022/11/20 11:14:10;;;;;;;28.48;8.68;;;13.10;99.90;;;;;;5012807;28;20164;-64
2022/11/20 11:16:52;;;;;;;24.95;7.22;;;13.10;99.90;;;;;;5012942;28;20029;-64
2022/11/20 11:19:18;;;;;;;29.23;8.00;;;13.20;99.90;;;;;;5013628;28;20101;-64
2022/11/20 11:21:52;;;;;;;46.53;29.83;;;13.30;99.90;;;;;;5013262;28;20419;-64
2022/11/20 11:24:26;;;;;;;33.92;13.30;;;13.40;99.90;;;;;;5017102;28;20053;-64
2022/11/20 11:27:06;;;;;;;30.48;9.63;;;13.50;99.90;;;;;;5032586;28;20033;-64
2022/11/20 11:29:33;;;;;;;29.67;7.97;;;13.60;99.90;;;;;;5032380;28;20116;-64
2022/11/20 11:32:20;;;;;;;25.58;8.35;;;13.70;99.90;;;;;;5032826;28;20021;-64
2022/11/20 11:35:06;;;;;;;22.48;6.75;;;13.90;99.90;;;;;;5032528;28;20029;-64
2022/11/20 11:37:37;;;;;;;23.13;7.20;;;14.20;99.90;;;;;;5032808;28;20401;-63
2022/11/20 11:40:10;;;;;;;23.23;5.78;;;14.60;99.90;;;;;;5042328;28;20167;-64
2022/11/20 11:42:50;;;;;;;19.95;4.97;;;14.70;99.90;;;;;;5052005;28;20029;-64
2022/11/20 11:45:19;;;;;;;23.65;6.75;;;14.90;99.90;;;;;;5052681;28;20551;-63
2022/11/20 11:47:48;;;;;;;24.90;6.28;;;15.80;99.90;;;;;;5052794;28;20082;-64
2022/11/20 11:50:23;;;;;;;24.92;5.50;;;16.50;99.90;;;;;;5052094;28;20029;-64
2022/11/20 11:53:10;;;;;;;20.77;5.63;;;16.80;99.90;;;;;;5052141;28;20029;-64
2022/11/20 11:55:47;;;;;;;21.50;5.03;;;17.10;99.90;;;;;;5051860;28;20096;-64
2022/11/20 11:58:41;;;;;;;22.73;5.50;;;17.10;99.90;;;;;;5051634;28;20413;-63
2022/11/20 12:01:34;;;;;;;22.33;5.10;;;16.80;99.90;;;;;;5051747;28;20116;-64
2022/11/20 12:04:05;;;;;;;22.42;5.90;;;16.90;99.90;;;;;;5051697;28;20079;-64
2022/11/20 12:06:34;;;;;;;25.75;6.28;;;17.00;99.90;;;;;;5051733;28;20016;-64
2022/11/20 12:09:08;;;;;;;18.73;5.40;;;16.90;99.90;;;;;;5052453;28;20033;-64
2022/11/20 12:11:33;;;;;;;;;;;17.20;99.90;;;;;;5056570;28;20071;-64
2022/11/20 12:14:04;;;;;;;21.92;5.38;;;17.10;99.90;;;;;;5056078;28;19905;-64
2022/11/20 12:16:34;;;;;;;27.58;7.63;;;17.00;99.90;;;;;;5055770;28;20537;-64
2022/11/20 12:19:00;;;;;;;23.58;4.72;;;16.90;99.90;;;;;;5055261;28;20083;-63
2022/11/20 12:21:35;;;;;;;23.55;5.03;;;16.70;99.90;;;;;;5055406;28;20033;-63
2022/11/20 12:24:31;;;;;;;26.75;11.38;;;16.70;99.90;;;;;;5055930;28;20028;-64
2022/11/20 12:27:40;;;;;;;63.72;43.15;;;16.50;99.90;;;;;;5055670;28;20017;-64
2022/11/20 12:30:15;;;;;;;32.33;14.70;;;16.50;99.90;;;;;;5034178;28;20030;-64
2022/11/20 12:32:47;;;;;;;27.90;11.23;;;16.20;99.90;;;;;;5033201;28;20049;-64
2022/11/20 12:35:28;;;;;;;22.27;8.48;;;16.30;99.90;;;;;;5033064;28;20497;-63
2022/11/20 12:38:12;;;;;;;26.23;8.95;;;16.20;99.90;;;;;;5032954;28;20052;-64
2022/11/20 12:40:49;;;;;;;25.40;8.98;;;16.20;99.90;;;;;;5033338;28;20109;-64
2022/11/20 12:46:30;;;;;;;21.83;7.45;;;16.30;99.90;;;;;;5033318;28;20069;-64
2022/11/20 12:49:07;;;;;;;20.40;5.18;;;16.40;99.90;;;;;;5032783;28;20043;-64
2022/11/20 12:52:05;;;;;;;21.67;5.82;;;16.50;99.90;;;;;;5033268;28;20037;-64
2022/11/20 12:55:08;;;;;;;17.20;4.32;;;16.20;99.90;;;;;;5032893;28;20025;-64
2022/11/20 12:58:03;;;;;;;29.40;10.40;;;15.90;99.90;;;;;;4993331;28;20478;-64
2022/11/20 13:00:33;;;;;;;21.95;7.80;;;16.30;99.90;;;;;;4993115;28;20038;-64
2022/11/20 13:03:37;;;;;;;18.27;4.25;;;16.50;99.90;;;;;;4994671;28;20657;-64
2022/11/20 13:06:09;;;;;;;;;;;16.40;99.90;;;;;;5013012;28;20085;-63
2022/11/20 13:08:38;;;;;;;18.52;4.65;;;16.30;99.90;;;;;;5013533;28;19906;-64
2022/11/20 13:11:16;;;;;;;19.60;4.72;;;16.20;99.90;;;;;;5013249;28;20044;-64
2022/11/20 13:14:07;;;;;;;16.98;4.93;;;16.30;99.90;;;;;;5013000;28;20041;-63
2022/11/20 13:16:45;;;;;;;20.98;4.55;;;16.30;99.90;;;;;;5012968;28;20066;-63
2022/11/20 13:19:16;;;;;;;17.85;4.57;;;16.10;99.90;;;;;;5012547;28;20109;-64